Bay Head, New Jersey
Current Conditions -  °F | °C
As of 11:35 AM on Saturday 22 Nov 2014 (Local Time) from KBLM Reporting Station
Clear Clear  
Wind Chill: 32°   Ceiling: Unl
Heat Index: 39°   Visibility: 10mi
Dew Point: 10°   Wind: 10mph
Humidity: 31%   Direction: 240°WSW
Pressure: 30.41"   Gusts: NA
Location:  40.0839°N, 74.0496°W
Report Text: KBLM 221635Z AUTO 24009KT 10SM CLR 04/M12 A3041 RMK AO1
Loading
Personal Weather Stations






























Interactive Weather Map New forecast layout! Learn more

10-Day Weather Forecast

Advertisements
Track Severe Weather on mobile